createdAt,value
2022-08-29T00:01:12.202Z,63.82
2022-08-29T00:03:42.055Z,63.91
2022-08-29T00:06:11.111Z,64.12
2022-08-29T00:08:37.967Z,64.11
2022-08-29T00:11:06.939Z,64.15
2022-08-29T00:13:35.162Z,64.51
2022-08-29T00:16:02.228Z,64.12
2022-08-29T00:18:29.871Z,64.20
2022-08-29T00:20:56.704Z,64.32
2022-08-29T00:23:23.522Z,64.43
2022-08-29T00:25:50.772Z,64.56
2022-08-29T00:28:17.778Z,64.78
2022-08-29T00:30:45.047Z,64.86
2022-08-29T00:33:16.264Z,64.96
2022-08-29T00:35:44.933Z,64.94
2022-08-29T00:38:16.695Z,65.02
2022-08-29T00:40:54.875Z,64.77
2022-08-29T00:43:29.608Z,64.80
2022-08-29T00:46:36.328Z,64.82
2022-08-29T00:49:09.295Z,65.28
2022-08-29T00:51:37.036Z,65.04
2022-08-29T00:54:09.487Z,65.02
2022-08-29T00:56:39.542Z,65.02
2022-08-29T00:59:21.976Z,65.16
2022-08-29T01:01:49.062Z,65.01
2022-08-29T01:04:23.661Z,65.22
2022-08-29T01:06:53.386Z,65.23
2022-08-29T01:09:21.222Z,65.50
2022-08-29T01:12:07.727Z,65.55
2022-08-29T01:14:38.409Z,66.04
2022-08-29T01:17:09.090Z,65.96
2022-08-29T01:20:01.125Z,66.20
2022-08-29T01:23:01.672Z,66.18
2022-08-29T01:25:34.503Z,66.58
2022-08-29T01:28:26.394Z,66.45
2022-08-29T01:30:59.089Z,66.46
2022-08-29T01:33:27.020Z,66.48
2022-08-29T01:35:54.062Z,66.41
2022-08-29T01:38:27.851Z,66.37
2022-08-29T01:40:59.147Z,66.35
2022-08-29T01:43:28.064Z,66.38
2022-08-29T01:45:55.803Z,66.46
2022-08-29T01:48:22.884Z,66.77
2022-08-29T01:50:50.171Z,66.78
2022-08-29T01:53:19.947Z,66.92
2022-08-29T01:55:46.821Z,66.86
2022-08-29T01:58:14.081Z,66.97
2022-08-29T02:00:41.334Z,66.85
2022-08-29T02:03:08.273Z,66.94
2022-08-29T02:05:35.279Z,67.32
2022-08-29T02:08:02.199Z,67.10
2022-08-29T02:10:30.652Z,67.41
2022-08-29T02:12:58.475Z,67.43
2022-08-29T02:15:25.498Z,67.50
2022-08-29T02:17:52.922Z,67.96
2022-08-29T02:20:19.895Z,68.10
2022-08-29T02:22:47.019Z,68.35
2022-08-29T02:25:32.470Z,68.15
2022-08-29T02:28:00.095Z,68.57
2022-08-29T02:30:27.043Z,68.35
2022-08-29T02:32:54.281Z,68.64
2022-08-29T02:35:22.766Z,68.81
2022-08-29T02:37:51.104Z,68.69
2022-08-29T02:40:18.216Z,69.39
2022-08-29T02:42:45.072Z,69.62
2022-08-29T02:45:12.250Z,69.71
2022-08-29T02:47:40.986Z,69.70
2022-08-29T02:50:10.883Z,69.97
2022-08-29T02:52:43.294Z,69.88
2022-08-29T02:55:17.908Z,70.02
2022-08-29T02:57:45.803Z,69.95
2022-08-29T03:00:19.240Z,69.92
2022-08-29T03:02:47.501Z,70.31
2022-08-29T03:05:16.611Z,70.63
2022-08-29T03:07:45.983Z,71.02
2022-08-29T03:10:16.151Z,70.98
2022-08-29T03:12:43.076Z,71.12
2022-08-29T03:15:10.836Z,71.43
2022-08-29T03:17:37.749Z,71.85
2022-08-29T03:20:06.324Z,71.62
2022-08-29T03:22:34.435Z,71.69
2022-08-29T03:25:03.060Z,71.55
2022-08-29T03:27:34.366Z,72.02
2022-08-29T03:30:01.927Z,72.22
2022-08-29T03:32:29.799Z,72.11
2022-08-29T03:34:56.684Z,72.05
2022-08-29T03:37:24.436Z,71.94
2022-08-29T03:39:53.224Z,72.23
2022-08-29T03:42:21.462Z,72.58
2022-08-29T03:44:48.332Z,72.65
2022-08-29T03:47:15.172Z,72.47
2022-08-29T03:49:41.971Z,72.92
2022-08-29T03:52:11.904Z,73.05
2022-08-29T03:54:38.924Z,72.98
2022-08-29T03:57:07.158Z,73.12
2022-08-29T03:59:35.518Z,73.11
2022-08-29T04:02:02.906Z,73.15
2022-08-29T04:04:48.241Z,73.29
2022-08-29T04:07:15.591Z,73.55
2022-08-29T04:09:42.482Z,73.41
2022-08-29T04:12:11.945Z,73.46
2022-08-29T04:14:40.023Z,73.45
2022-08-29T04:17:08.401Z,73.74
2022-08-29T04:19:35.463Z,73.60
2022-08-29T04:22:04.643Z,73.48
2022-08-29T04:24:35.956Z,73.74
2022-08-29T04:27:02.828Z,73.50
2022-08-29T04:29:29.633Z,73.54
2022-08-29T04:31:56.450Z,73.79
2022-08-29T04:34:23.291Z,73.91
2022-08-29T04:36:50.114Z,74.21
2022-08-29T04:39:19.297Z,74.63
2022-08-29T04:41:46.382Z,74.43
2022-08-29T04:44:13.402Z,74.56
2022-08-29T04:46:40.664Z,74.49
2022-08-29T04:49:08.272Z,74.70
2022-08-29T04:51:36.573Z,74.84
2022-08-29T04:54:06.784Z,74.92
2022-08-29T04:56:34.649Z,74.97
2022-08-29T04:59:01.839Z,74.85
2022-08-29T05:01:29.047Z,74.79
2022-08-29T05:03:56.629Z,74.99
2022-08-29T05:06:24.329Z,74.91
2022-08-29T05:08:55.001Z,75.04
2022-08-29T05:11:30.759Z,74.95
2022-08-29T05:13:59.143Z,75.04
2022-08-29T05:16:26.756Z,75.19
2022-08-29T05:18:54.250Z,75.43
2022-08-29T05:21:35.085Z,75.42
2022-08-29T05:24:07.294Z,75.23
2022-08-29T05:26:39.234Z,75.26
2022-08-29T05:29:09.018Z,75.53
2022-08-29T05:31:38.458Z,75.46
2022-08-29T05:34:31.919Z,75.46
2022-08-29T05:36:52.876Z,75.72
2022-08-29T05:39:19.936Z,75.90
2022-08-29T05:41:46.871Z,76.23
2022-08-29T05:44:13.697Z,76.03
2022-08-29T05:46:40.743Z,76.02
2022-08-29T05:49:07.960Z,75.87
2022-08-29T05:51:39.341Z,76.09
2022-08-29T05:54:07.519Z,75.75
2022-08-29T05:56:35.071Z,75.77
2022-08-29T05:59:02.021Z,75.86
2022-08-29T06:01:33.028Z,75.86
2022-08-29T06:04:01.309Z,75.87
2022-08-29T06:06:29.950Z,75.87
2022-08-29T06:08:58.386Z,75.85
2022-08-29T06:11:29.748Z,75.69
2022-08-29T06:13:56.990Z,75.89
2022-08-29T06:16:26.864Z,75.76
2022-08-29T06:18:54.239Z,75.73
2022-08-29T06:21:21.727Z,75.88
2022-08-29T06:23:49.296Z,75.86
2022-08-29T06:26:17.561Z,75.88
2022-08-29T06:28:46.518Z,75.98
2022-08-29T06:31:25.200Z,76.18
2022-08-29T06:33:55.275Z,76.09
2022-08-29T06:36:25.556Z,76.22
2022-08-29T06:38:56.012Z,76.32
2022-08-29T06:41:25.037Z,76.48
2022-08-29T06:43:52.800Z,76.45
2022-08-29T06:46:34.517Z,76.39
2022-08-29T06:49:07.198Z,76.60
2022-08-29T06:51:37.600Z,76.56
2022-08-29T06:54:07.774Z,76.63
2022-08-29T06:56:37.153Z,76.62
2022-08-29T06:59:05.860Z,76.64
2022-08-29T07:01:33.563Z,76.79
2022-08-29T07:04:03.399Z,76.91
2022-08-29T07:06:32.015Z,76.89
2022-08-29T07:08:59.380Z,76.84
2022-08-29T07:11:30.263Z,76.99
2022-08-29T07:14:04.837Z,76.73
2022-08-29T07:16:33.550Z,76.81
2022-08-29T07:19:04.974Z,77.02
2022-08-29T07:21:32.503Z,76.54
2022-08-29T07:23:59.516Z,76.46
2022-08-29T07:26:39.113Z,76.47
2022-08-29T07:29:15.525Z,76.28
2022-08-29T07:31:42.997Z,76.25
2022-08-29T07:34:10.738Z,76.25
2022-08-29T07:36:38.142Z,76.01
2022-08-29T07:39:09.800Z,75.87
2022-08-29T07:41:39.580Z,75.63
2022-08-29T07:44:07.707Z,75.70
2022-08-29T07:46:34.885Z,75.57
2022-08-29T07:49:02.036Z,75.39
2022-08-29T07:51:29.394Z,75.15
2022-08-29T07:53:57.420Z,74.99
2022-08-29T07:56:29.158Z,74.85
2022-08-29T07:58:59.600Z,74.92
2022-08-29T08:01:27.654Z,74.24
2022-08-29T08:03:55.254Z,74.09
2022-08-29T08:06:27.093Z,73.92
2022-08-29T08:08:55.438Z,74.00
2022-08-29T08:11:25.048Z,73.28
2022-08-29T08:13:56.551Z,73.03
2022-08-29T08:16:26.505Z,71.90
2022-08-29T08:18:55.251Z,71.53
2022-08-29T08:21:23.666Z,70.80
2022-08-29T08:23:51.216Z,70.29
2022-08-29T08:26:19.180Z,70.36
2022-08-29T08:28:46.528Z,70.19
2022-08-29T08:31:19.521Z,69.62
2022-08-29T08:33:47.175Z,68.62
2022-08-29T08:36:28.695Z,67.83
2022-08-29T08:38:58.247Z,67.53
2022-08-29T08:41:52.597Z,67.61
2022-08-29T08:44:22.516Z,67.32
2022-08-29T08:46:54.433Z,66.76
2022-08-29T08:49:43.213Z,65.95
2022-08-29T08:52:20.713Z,64.40
2022-08-29T08:54:55.104Z,64.48
2022-08-29T08:57:22.567Z,64.22
2022-08-29T08:59:58.799Z,64.07
2022-08-29T09:02:43.133Z,63.44
2022-08-29T09:05:49.068Z,62.83
2022-08-29T09:08:19.154Z,62.79
2022-08-29T09:11:03.842Z,61.32
2022-08-29T09:14:01.536Z,60.85
2022-08-29T09:16:41.875Z,60.09
2022-08-29T09:19:12.784Z,60.02
2022-08-29T09:21:55.449Z,59.26
2022-08-29T09:24:35.971Z,58.03
2022-08-29T09:27:03.098Z,57.38
2022-08-29T09:29:31.165Z,56.62
2022-08-29T09:32:20.219Z,56.36
2022-08-29T09:35:08.825Z,56.32
2022-08-29T09:37:36.786Z,55.96
2022-08-29T09:40:19.086Z,55.90
2022-08-29T09:43:01.944Z,55.74
2022-08-29T09:45:29.080Z,56.12
2022-08-29T09:48:16.671Z,56.25
2022-08-29T09:50:44.539Z,56.66
2022-08-29T09:53:14.426Z,56.28
2022-08-29T09:55:52.760Z,56.35
2022-08-29T09:58:20.125Z,56.58
2022-08-29T10:01:05.481Z,56.59
2022-08-29T10:03:39.113Z,56.58
2022-08-29T10:06:22.684Z,56.40
2022-08-29T10:08:59.395Z,56.83
2022-08-29T10:11:42.591Z,56.39
2022-08-29T10:14:35.686Z,56.48
2022-08-29T10:17:40.623Z,56.38
2022-08-29T10:20:10.035Z,56.06
2022-08-29T10:22:46.709Z,56.02
2022-08-29T10:25:24.596Z,55.87
2022-08-29T10:28:22.487Z,55.86
2022-08-29T10:31:05.346Z,55.96
2022-08-29T10:33:47.315Z,55.91
2022-08-29T10:36:27.539Z,56.24
2022-08-29T10:39:11.071Z,56.09
2022-08-29T10:41:50.275Z,56.24
2022-08-29T10:44:31.682Z,55.88
2022-08-29T10:47:04.522Z,56.09
2022-08-29T10:50:21.775Z,55.33
2022-08-29T10:53:14.777Z,55.18
2022-08-29T10:56:20.345Z,54.82
2022-08-29T10:59:00.021Z,55.24
2022-08-29T11:01:36.038Z,55.33
2022-08-29T11:04:30.111Z,55.52
2022-08-29T11:07:32.518Z,55.42
2022-08-29T11:10:13.232Z,55.79
2022-08-29T11:13:18.900Z,55.78
2022-08-29T11:16:05.527Z,55.97
2022-08-29T11:19:03.679Z,55.82
2022-08-29T11:21:41.227Z,56.08
2022-08-29T11:24:11.166Z,55.69
2022-08-29T11:26:44.908Z,55.98
2022-08-29T11:29:29.957Z,55.72
2022-08-29T11:32:04.815Z,55.41
2022-08-29T11:35:04.879Z,54.96
2022-08-29T11:37:50.045Z,54.68
2022-08-29T11:43:44.078Z,54.69
2022-08-29T11:46:14.108Z,54.57
2022-08-29T11:48:48.753Z,54.61
2022-08-29T11:51:37.654Z,54.51
2022-08-29T11:54:28.801Z,54.24
2022-08-29T11:57:16.531Z,53.95
2022-08-29T11:59:49.222Z,54.40
2022-08-29T12:02:28.312Z,54.46
2022-08-29T12:05:06.451Z,54.16
2022-08-29T12:07:40.741Z,53.68
2022-08-29T12:10:29.613Z,53.63
2022-08-29T12:13:05.033Z,53.11
2022-08-29T12:15:34.647Z,53.22
2022-08-29T12:18:07.843Z,52.94
2022-08-29T12:20:47.226Z,53.08
2022-08-29T12:23:14.231Z,53.50
2022-08-29T12:26:33.178Z,53.33
2022-08-29T12:29:02.046Z,52.98
2022-08-29T12:32:18.187Z,52.71
2022-08-29T12:35:11.262Z,52.93
2022-08-29T12:38:03.377Z,52.98
2022-08-29T12:40:45.894Z,52.89
2022-08-29T12:43:45.549Z,53.12
2022-08-29T12:46:29.211Z,53.74
2022-08-29T12:49:52.012Z,54.18
2022-08-29T12:52:33.057Z,54.70
2022-08-29T12:55:29.281Z,54.86
2022-08-29T12:57:58.007Z,54.74
2022-08-29T13:00:31.216Z,54.24
2022-08-29T13:03:09.318Z,54.18
2022-08-29T13:05:41.769Z,53.54
2022-08-29T13:08:33.536Z,53.59
2022-08-29T13:11:13.714Z,52.96
2022-08-29T13:13:41.252Z,53.00
2022-08-29T13:16:23.460Z,53.40
2022-08-29T13:19:07.696Z,53.07
2022-08-29T13:21:36.746Z,52.06
2022-08-29T13:24:20.927Z,51.64
2022-08-29T13:27:03.232Z,51.64
2022-08-29T13:29:40.394Z,51.61
2022-08-29T13:32:27.441Z,51.71
2022-08-29T13:35:28.785Z,51.14
2022-08-29T13:38:25.503Z,51.35
2022-08-29T13:40:58.255Z,51.07
2022-08-29T13:43:38.536Z,51.24
2022-08-29T13:46:18.806Z,51.74
2022-08-29T13:48:45.769Z,51.84
2022-08-29T13:51:13.198Z,51.89
2022-08-29T13:53:40.098Z,51.99
2022-08-29T13:56:32.510Z,52.55
2022-08-29T13:59:00.793Z,52.20
2022-08-29T14:02:07.149Z,52.78
2022-08-29T14:04:36.912Z,52.71
2022-08-29T14:07:01.750Z,53.04
2022-08-29T14:09:37.395Z,53.17
2022-08-29T14:12:05.612Z,53.43
2022-08-29T14:14:32.531Z,53.68
2022-08-29T14:16:59.855Z,54.04
2022-08-29T14:19:29.467Z,54.25
2022-08-29T14:22:00.704Z,53.94
2022-08-29T14:24:31.086Z,53.83
2022-08-29T14:27:02.019Z,53.72
2022-08-29T14:29:31.594Z,53.87
2022-08-29T14:32:03.025Z,53.51
2022-08-29T14:34:32.299Z,52.91
2022-08-29T14:37:01.221Z,52.90
2022-08-29T14:39:29.445Z,52.51
2022-08-29T14:41:56.384Z,52.88
2022-08-29T14:44:23.672Z,52.67
2022-08-29T14:46:51.715Z,52.67
2022-08-29T14:49:19.255Z,52.70
2022-08-29T14:51:46.299Z,53.17
2022-08-29T14:54:13.684Z,52.76
2022-08-29T14:56:48.856Z,52.47
2022-08-29T14:59:21.497Z,52.40
2022-08-29T15:01:54.255Z,52.83
2022-08-29T15:04:35.889Z,52.70
2022-08-29T15:07:10.946Z,52.67
2022-08-29T15:09:39.561Z,52.76
2022-08-29T15:12:06.798Z,52.72
2022-08-29T15:14:34.872Z,52.89
2022-08-29T15:17:03.580Z,52.79
2022-08-29T15:20:18.275Z,53.12
2022-08-29T15:22:17.982Z,53.00
2022-08-29T15:24:45.334Z,52.91
2022-08-29T15:27:12.784Z,53.34
2022-08-29T15:29:43.390Z,53.50
2022-08-29T15:32:12.284Z,53.90
2022-08-29T15:34:41.499Z,54.33
2022-08-29T15:37:10.727Z,54.57
2022-08-29T15:39:37.917Z,54.68
2022-08-29T15:42:11.130Z,54.92
2022-08-29T15:44:39.949Z,54.86
2022-08-29T15:47:10.441Z,54.62
2022-08-29T15:49:38.207Z,54.62
2022-08-29T15:52:05.178Z,54.46
2022-08-29T15:54:32.323Z,54.24
2022-08-29T15:56:59.236Z,54.44
2022-08-29T15:59:47.316Z,54.16
2022-08-29T16:02:14.948Z,54.22
2022-08-29T16:04:44.948Z,54.43
2022-08-29T16:07:14.609Z,54.66
2022-08-29T16:09:41.853Z,54.76
2022-08-29T16:12:10.555Z,54.67
2022-08-29T16:17:24.827Z,54.85
2022-08-29T16:19:51.688Z,55.06
2022-08-29T16:22:19.040Z,55.17
2022-08-29T16:24:45.975Z,55.33
2022-08-29T16:27:12.908Z,55.15
2022-08-29T16:29:39.878Z,54.83
2022-08-29T16:32:07.888Z,54.67
2022-08-29T16:34:34.812Z,54.12
2022-08-29T16:37:02.595Z,53.91
2022-08-29T16:39:29.908Z,53.39
2022-08-29T16:41:57.111Z,52.83
2022-08-29T16:44:24.791Z,53.08
2022-08-29T16:46:52.060Z,53.49
2022-08-29T16:49:19.287Z,54.02
2022-08-29T16:51:46.215Z,53.07
2022-08-29T16:54:13.010Z,53.01
2022-08-29T16:56:40.007Z,53.35
2022-08-29T16:59:07.508Z,53.69
2022-08-29T17:01:48.525Z,53.96
2022-08-29T17:04:26.168Z,54.28
2022-08-29T17:06:53.443Z,54.65
2022-08-29T17:09:23.167Z,54.72
2022-08-29T17:11:52.441Z,54.91
2022-08-29T17:14:21.615Z,54.75
2022-08-29T17:16:52.472Z,54.96
2022-08-29T17:19:20.726Z,54.92
2022-08-29T17:21:48.046Z,54.33
2022-08-29T17:24:16.608Z,54.13
2022-08-29T17:26:46.560Z,54.11
2022-08-29T17:29:15.079Z,53.89
2022-08-29T17:31:42.424Z,53.90
2022-08-29T17:34:10.333Z,54.37
2022-08-29T17:36:40.725Z,54.14
2022-08-29T17:39:08.597Z,53.82
2022-08-29T17:41:37.357Z,53.83
2022-08-29T17:44:07.555Z,54.08
2022-08-29T17:46:35.442Z,54.56
2022-08-29T17:49:07.472Z,54.33
2022-08-29T17:51:35.272Z,54.04
2022-08-29T17:54:04.282Z,54.15
2022-08-29T17:56:59.890Z,53.75
2022-08-29T17:59:33.890Z,53.62
2022-08-29T18:02:01.760Z,52.94
2022-08-29T18:04:29.102Z,52.42
2022-08-29T18:06:56.967Z,52.46
2022-08-29T18:09:24.908Z,53.05
2022-08-29T18:11:53.618Z,53.09
2022-08-29T18:14:23.887Z,53.25
2022-08-29T18:16:55.156Z,53.50
2022-08-29T18:19:22.875Z,54.13
2022-08-29T18:21:52.045Z,54.37
2022-08-29T18:24:19.832Z,54.75
2022-08-29T18:26:47.595Z,54.85
2022-08-29T18:29:15.892Z,55.27
2022-08-29T18:31:43.301Z,55.61
2022-08-29T18:34:11.703Z,56.03
2022-08-29T18:36:42.404Z,56.01
2022-08-29T18:39:10.499Z,56.62
2022-08-29T18:41:37.910Z,56.80
2022-08-29T18:44:05.256Z,56.93
2022-08-29T18:46:32.872Z,57.26
2022-08-29T18:48:59.839Z,57.46
2022-08-29T18:51:26.773Z,57.61
2022-08-29T18:53:54.725Z,58.07
2022-08-29T18:56:21.588Z,58.19
2022-08-29T18:58:48.386Z,58.51
2022-08-29T19:01:28.338Z,58.72
2022-08-29T19:03:57.931Z,59.01
2022-08-29T19:06:26.138Z,59.13
2022-08-29T19:08:55.189Z,59.30
2022-08-29T19:11:22.403Z,59.29
2022-08-29T19:13:52.436Z,59.23
2022-08-29T19:16:21.908Z,59.52
2022-08-29T19:18:49.332Z,59.63
2022-08-29T19:21:16.216Z,59.75
2022-08-29T19:23:47.318Z,59.57
2022-08-29T19:26:28.559Z,59.25
2022-08-29T19:29:04.911Z,59.54
2022-08-29T19:31:32.057Z,59.58
2022-08-29T19:33:59.312Z,59.65
2022-08-29T19:36:26.935Z,59.52
2022-08-29T19:38:54.229Z,59.76
2022-08-29T19:41:21.112Z,59.65
2022-08-29T19:43:48.244Z,59.71
2022-08-29T19:51:54.352Z,59.96
2022-08-29T19:54:21.832Z,60.08
2022-08-29T19:56:48.668Z,60.20
2022-08-29T19:59:16.238Z,60.44
2022-08-29T20:01:45.182Z,60.73
2022-08-29T20:04:12.732Z,60.68
2022-08-29T20:06:39.714Z,60.66
2022-08-29T20:09:07.195Z,60.69
2022-08-29T20:11:43.431Z,60.63
2022-08-29T20:14:11.289Z,60.71
2022-08-29T20:16:41.906Z,60.88
2022-08-29T20:19:10.336Z,61.03
2022-08-29T20:21:37.763Z,60.91
2022-08-29T20:24:05.508Z,61.12
2022-08-29T20:26:35.982Z,60.99
2022-08-29T20:29:09.336Z,61.12
2022-08-29T20:31:37.116Z,61.15
2022-08-29T20:34:05.123Z,61.15
2022-08-29T20:36:50.558Z,61.22
2022-08-29T20:39:19.561Z,61.17
2022-08-29T20:41:56.511Z,61.56
2022-08-29T20:44:31.484Z,61.29
2022-08-29T20:47:00.670Z,61.54
2022-08-29T20:49:27.687Z,61.75
2022-08-29T20:51:54.648Z,61.78
2022-08-29T20:54:24.498Z,62.13
2022-08-29T20:56:52.618Z,62.39
2022-08-29T20:59:20.962Z,62.29
2022-08-29T21:01:49.900Z,62.62
2022-08-29T21:04:37.040Z,62.74
2022-08-29T21:07:11.291Z,62.50
2022-08-29T21:09:43.522Z,62.23
2022-08-29T21:12:13.845Z,62.30
2022-08-29T21:14:41.222Z,62.19
2022-08-29T21:17:11.263Z,62.31
2022-08-29T21:19:39.551Z,62.65
2022-08-29T21:22:09.251Z,62.68
2022-08-29T21:24:36.580Z,62.56
2022-08-29T21:27:03.583Z,62.95
2022-08-29T21:29:30.440Z,63.09
2022-08-29T21:31:57.767Z,63.44
2022-08-29T21:34:24.776Z,63.45
2022-08-29T21:36:51.886Z,63.23
2022-08-29T21:39:28.788Z,63.39
2022-08-29T21:41:56.943Z,63.36
2022-08-29T21:44:24.193Z,63.50
2022-08-29T21:46:51.129Z,63.29
2022-08-29T21:49:21.927Z,63.64
2022-08-29T21:51:49.772Z,63.87
2022-08-29T21:54:18.015Z,63.80
2022-08-29T21:56:46.622Z,64.09
2022-08-29T21:59:15.181Z,64.18
2022-08-29T22:01:43.837Z,63.92
2022-08-29T22:04:19.137Z,64.17
2022-08-29T22:06:55.239Z,64.52
2022-08-29T22:09:23.342Z,64.33
2022-08-29T22:11:50.212Z,64.47
2022-08-29T22:14:17.037Z,64.60
2022-08-29T22:16:43.949Z,64.79
2022-08-29T22:19:15.316Z,65.13
2022-08-29T22:21:46.769Z,65.35
2022-08-29T22:24:17.120Z,65.29
2022-08-29T22:26:45.827Z,65.21
2022-08-29T22:29:16.049Z,65.55
2022-08-29T22:31:44.617Z,65.37
2022-08-29T22:34:16.499Z,65.92
2022-08-29T22:36:44.060Z,65.88
2022-08-29T22:39:11.284Z,66.01
2022-08-29T22:41:38.358Z,66.75
2022-08-29T22:46:54.218Z,66.64
2022-08-29T22:49:21.461Z,66.94
2022-08-29T22:51:49.140Z,67.03
2022-08-29T22:54:34.945Z,67.23
2022-08-29T22:57:10.049Z,67.55
2022-08-29T22:59:38.359Z,67.87
2022-08-29T23:02:07.579Z,67.74
2022-08-29T23:04:34.916Z,67.42
2022-08-29T23:07:02.363Z,67.73
2022-08-29T23:09:35.222Z,67.80
2022-08-29T23:12:05.982Z,67.80
2022-08-29T23:14:37.920Z,67.95
2022-08-29T23:17:07.785Z,67.86
2022-08-29T23:19:36.514Z,67.96
2022-08-29T23:22:05.923Z,68.23
2022-08-29T23:24:33.151Z,68.12
2022-08-29T23:27:00.641Z,68.64
2022-08-29T23:29:29.754Z,68.80
2022-08-29T23:31:56.857Z,68.77
2022-08-29T23:34:24.212Z,69.30
2022-08-29T23:36:51.028Z,69.15
2022-08-29T23:39:17.952Z,69.27
2022-08-29T23:41:44.901Z,69.40
2022-08-29T23:44:11.723Z,69.58
2022-08-29T23:46:39.059Z,69.61
2022-08-29T23:49:06.344Z,69.66
2022-08-29T23:51:33.918Z,70.38
2022-08-29T23:54:00.916Z,70.47
2022-08-29T23:56:28.052Z,70.49
2022-08-29T23:58:56.942Z,70.88
